Independence, Texas
Current Conditions -  °F | °C
As of 6:55 PM on Wednesday 22 Oct 2014 (Local Time) from K11R Reporting Station
Clear Clear  
Wind Chill: 76°   Ceiling: Unl
Heat Index: 78°   Visibility: 10mi
Dew Point: 58°   Wind: 3mph
Humidity: 54%   Direction: 70°ENE
Pressure: 30.06"   Gusts: NA
Location:  30.2352°N, 96.4076°W
Report Text: K11R 222355Z AUTO 07003KT 10SM CLR 25/15 A3006 RMK AO2 T02460147 10286 20246
Loading
Personal Weather Stations






























Interactive Weather Map
Tropical Storm Tracking
New forecast layout! Learn more

10-Day Weather Forecast

Advertisements
Track Severe Weather on mobile